WEATHER DATA

YESTERDAY
Time Temp. Dewp. Hum. Wind dir Wind speed Wind gust Bar. 1h Prec. 24h Prec.
00:16 4.8 0.8 75 168 0.6 1.1 1018.7 0.0000 0.0000
00:26 4.8 0.9 76 163 0.6 1.1 1018.8 0.0000 0.0000
00:35 4.7 0.8 76 184 0.6 1.4 1018.8 0.0000 0.0000
00:46 4.7 0.8 76 180 0.6 1.4 1018.8 0.0000 0.0000
00:56 4.8 0.9 76 186 0.6 1.1 1018.8 0.0000 0.0000
01:06 4.8 0.9 76 181 0.6 1.1 1018.7 0.0000 0.0000
01:15 4.7 0.8 76 191 0.6 1.1 1018.9 0.0000 0.0000
01:26 4.6 0.7 76 187 0.3 1.4 1019 0.0000 0.0000
01:36 4.4 0.5 76 146 0.3 1.7 1019 0.0000 0.0000
01:46 4.3 0.4 76 161 0.3 1.1 1019.1 0.0000 0.0000
01:56 4.1 0.3 76 192 0.6 1.7 1019 0.0000 0.0000
02:06 4 0.3 77 180 0.3 1.4 1019 0.0000 0.0000
02:16 3.8 0.1 77 180 0.3 1.1 1018.9 0.0000 0.0000
02:26 3.7 0 77 168 0.3 0.6 1019 0.0000 0.0000
02:36 3.6 0.1 78 161 0.3 0.8 1019.1 0.0000 0.0000
02:46 3.5 0 78 149 0.3 0.6 1018.9 0.0000 0.0000
02:56 3.3 -0.1 78 151 0.3 0.6 1018.9 0.0000 0.0000
03:06 3.2 -0.2 78 90 0.3 0.6 1018.9 0.0000 0.0000
03:18 2.9 -0.5 78 135 0.3 0.8 1018.9 0.0000 0.0000
03:28 2.7 -0.7 78 90 0.3 0.6 1018.9 0.0000 0.0000
03:38 2.4 -0.8 79 130 0.3 0.8 1018.8 0.0000 0.0000
03:48 2.2 -0.9 79 139 0.3 0.8 1018.9 0.0000 0.0000
03:59 2.1 -0.9 80 167 0.3 1.7 1018.7 0.0000 0.0000
04:08 2.1 -0.9 80 159 0.3 1.4 1018.6 0.0000 0.0000
04:18 2.4 -0.5 81 185 0.8 1.7 1018.5 0.0000 0.0000
04:28 2.7 -0.2 81 135 0.3 0.8 1018.6 0.0000 0.0000
04:39 2.9 0 81 141 0.6 1.4 1018.7 0.0000 0.0000
04:48 2.9 0 81 144 0.3 0.8 1018.6 0.0000 0.0000
04:58 2.9 0 81 131 0.3 1.1 1018.6 0.0000 0.0000
05:09 2.8 -0.1 81 140 0.6 1.4 1018.7 0.0000 0.0000
05:19 2.8 -0.1 81 131 0.6 0.8 1018.6 0.0000 0.0000
05:28 2.7 -0.2 81 135 0.3 1.1 1018.6 0.0000 0.0000
05:39 2.6 -0.3 81 135 0.3 1.1 1018.6 0.0000 0.0000
05:49 2.5 -0.4 81 135 0.3 0.8 1018.6 0.0000 0.0000
05:59 2.3 -0.5 81 124 0.3 0.8 1018.6 0.0000 0.0000
06:09 2.2 -0.6 81 135 0.3 0.8 1018.6 0.0000 0.0000
06:19 2.2 -0.6 81 135 0.3 1.1 1018.4 0.0000 0.0000
06:29 2.1 -0.7 81 135 0.3 0.8 1018.4 0.0000 0.0000
06:39 2.1 -0.6 82 148 0.6 1.1 1018.3 0.0000 0.0000
06:49 2 -0.7 82 0 0.6 1018.4 0.0000 0.0000
06:59 1.8 -0.8 82 0 0.6 1018.3 0.0000 0.0000
07:09 1.6 -1.1 81 130 0.3 0.8 1018.2 0.0000 0.0000
07:19 1.4 -1.2 82 135 0.3 0.6 1018.1 0.0000 0.0000
07:30 1.2 -1.3 82 90 0.3 0.6 1018.2 0.0000 0.0000
07:40 1 -1.5 82 128 0.3 0.6 1018.3 0.0000 0.0000
07:49 0.9 -1.6 82 135 0.3 0.8 1018.2 0.0000 0.0000
08:00 0.9 -1.5 83 138 0.3 0.8 1018.3 0.0000 0.0000
08:10 1 -1.4 83 143 0.6 0.8 1018.2 0.0000 0.0000
08:20 1.2 -1.2 83 147 0.3 0.8 1018.2 0.0000 0.0000
08:30 1.3 -1 84 147 0.3 1.1 1018 0.0000 0.0000
08:40 1.6 -0.7 84 182 0.6 1.1 1018.2 0.0000 0.0000
08:50 1.9 -0.5 84 182 0.6 1.1 1018.1 0.0000 0.0000
09:00 2.2 0 85 180 0.6 1.1 1017.9 0.0000 0.0000
09:10 2.7 0.4 85 186 0.8 1.9 1017.9 0.0000 0.0000
09:21 3.2 0.9 85 184 0.8 1.9 1017.8 0.0000 0.0000
09:30 3.9 1.6 85 193 1.1 2.5 1017.9 0.0000 0.0000
09:40 4.5 2.2 85 181 0.8 2.5 1017.7 0.0000 0.0000
09:51 5.1 2.6 84 198 0.8 1.7 1017.6 0.0000 0.0000
10:01 5.6 3.1 84 205 0.8 2.5 1017.7 0.0000 0.0000
10:11 6.1 3.4 83 203 0.8 1.7 1017.7 0.0000 0.0000
10:20 6.5 3.7 82 208 0.8 1.7 1017.6 0.0000 0.0000
10:31 6.8 3.8 81 200 0.8 2.5 1017.5 0.0000 0.0000
10:41 7.1 3.9 80 195 1.1 4.2 1017.5 0.0000 0.0000
10:51 7.4 4.2 80 210 0.8 1.9 1017.5 0.0000 0.0000
11:02 7.8 4.4 79 219 0.8 1.9 1017.5 0.0000 0.0000
11:11 8.4 4.8 78 227 0.8 2.8 1017.4 0.0000 0.0000
11:21 9 5.2 77 192 1.4 2.8 1017.4 0.0000 0.0000
11:31 9.5 5.3 75 206 1.1 3.3 1017.3 0.0000 0.0000
11:42 10.1 5.5 73 220 0.8 2.8 1017.2 0.0000 0.0000
11:51 10.6 5.6 71 219 1.1 3.1 1017.1 0.0000 0.0000
12:01 11 5.7 70 205 1.1 2.8 1017 0.0000 0.0000
12:17 11.6 5.9 68 217 1.4 3.1 1016.7 0.0000 0.0000
12:27 12 6.1 67 219 1.1 3.1 1016.7 0.0000 0.0000
12:36 12.3 5.9 65 220 1.1 3.3 1016.4 0.0000 0.0000
12:47 12.6 6.2 65 205 1.4 3.3 1016.4 0.0000 0.0000
12:57 12.9 6.3 64 225 1.4 3.1 1016.4 0.0000 0.0000
13:07 13.2 6.5 64 206 1.4 4.2 1016.4 0.0000 0.0000
13:17 13.4 6.7 64 228 1.4 3.9 1016.4 0.0000 0.0000
13:27 13.6 6.9 64 208 1.1 2.5 1016.1 0.0000 0.0000
13:37 13.8 6.9 63 215 1.1 3.1 1016.1 0.0000 0.0000
13:47 13.8 6.9 63 211 1.4 3.1 1016 0.0000 0.0000
13:58 13.7 6.8 63 213 1.4 3.1 1015.9 0.0000 0.0000
14:07 13.7 6.8 63 228 1.1 3.3 1015.7 0.0000 0.0000
14:17 13.8 6.9 63 225 1.1 2.5 1015.6 0.0000 0.0000
14:27 13.7 6.6 62 228 1.4 3.9 1015.3 0.0000 0.0000
14:38 13.7 6.8 63 228 1.7 4.2 1015.3 0.0000 0.0000
14:48 13.9 7 63 218 1.1 2.8 1015.2 0.0000 0.0000
14:57 14.1 6.9 62 225 1.1 3.6 1015 0.0000 0.0000
15:08 14.3 6.9 61 217 1.1 4.2 1014.9 0.0000 0.0000
15:18 14.4 7 61 223 1.4 2.8 1014.9 0.0000 0.0000
15:28 14.3 6.9 61 229 1.1 1.9 1014.9 0.0000 0.0000
15:38 14.3 6.9 61 223 1.1 3.1 1014.8 0.0000 0.0000
15:48 14.2 6.8 61 219 1.1 3.1 1014.8 0.0000 0.0000
15:58 14.1 6.7 61 225 1.1 2.8 1014.6 0.0000 0.0000
16:08 14 6.6 61 228 0.8 1.9 1014.6 0.0000 0.0000
16:18 13.8 6.7 62 229 0.8 2.8 1014.5 0.0000 0.0000
16:29 13.6 6.5 62 230 0.8 1.9 1014.5 0.0000 0.0000
16:38 13.4 6.5 63 234 0.6 1.1 1014.4 0.0000 0.0000
16:48 13.1 6.5 64 230 0.6 1.1 1014.4 0.0000 0.0000
16:59 12.7 6.1 64 225 0.6 1.1 1014.4 0.0000 0.0000
17:09 12.3 5.9 65 204 0.6 1.1 1014.4 0.0000 0.0000
17:19 11.8 5.4 65 214 0.3 0.8 1014.3 0.0000 0.0000
17:29 11.4 5.3 66 202 0.3 0.8 1014.3 0.0000 0.0000
17:39 10.9 5 67 191 0.3 0.6 1014.3 0.0000 0.0000
17:49 10.3 4.4 67 198 0.3 0.8 1014.4 0.0000 0.0000
17:59 9.8 4.2 68 201 0.3 0.6 1014.4 0.0000 0.0000
18:09 9.2 3.8 69 183 0.3 0.6 1014.4 0.0000 0.0000
18:19 8.7 3.3 69 195 0.3 0.6 1014.5 0.0000 0.0000
18:29 8.2 3.1 70 180 0.3 0.6 1014.4 0.0000 0.0000
18:39 7.7 2.8 71 0 0.6 1014.4 0.0000 0.0000
18:50 7.3 2.4 71 0 0.6 1014.4 0.0000 0.0000
18:59 6.9 2.2 72 126 0.3 0.6 1014.5 0.0000 0.0000
19:09 6.7 2.2 73 137 0.6 1.1 1014.4 0.0000 0.0000
19:20 6.6 2.3 74 135 0.3 0.8 1014.2 0.0000 0.0000
19:30 6.5 2.4 75 135 0.3 0.8 1014.2 0.0000 0.0000
19:40 6.2 2.1 75 0 0.6 1014.2 0.0000 0.0000
19:50 6 1.9 75 225 0.3 0.6 1014.1 0.0000 0.0000
20:00 5.8 1.9 76 270 0.3 0.6 1014.2 0.0000 0.0000
20:10 5.5 1.6 76 233 0.3 0.6 1014.2 0.0000 0.0000
20:20 5.3 1.4 76 219 0.3 0.6 1014.3 0.0000 0.0000
20:30 5.1 1.4 77 212 0.3 0.6 1014.3 0.0000 0.0000
20:40 4.8 1.1 77 192 0.3 0.6 1014.3 0.0000 0.0000
20:50 4.6 1.1 78 0 0.3 1014.2 0.0000 0.0000
21:00 4.4 0.9 78 0 0.3 1014.2 0.0000 0.0000
21:11 4.1 0.6 78 231 0.3 0.6 1014.2 0.0000 0.0000
21:20 4 0.7 79 0 0.6 1014.4 0.0000 0.0000
21:30 3.8 0.5 79 0 0.6 1014.2 0.0000 0.0000
21:41 3.7 0.6 80 270 0.3 0.8 1014.2 0.0000 0.0000
21:47 3.7 0.6 80 225 0.3 0.6 1014.1 0.0000 0.0000
22:51 3.6 0.8 82 180 0.3 0.6 1014.2 0.0000 0.0000
23:00 3.5 0.7 82 173 0.3 0.6 1014.1 0.0000 0.0000
23:10 3.5 0.7 82 0 0.6 1014.1 0.0000 0.0000
23:21 3.5 0.9 83 186 0.3 0.8 1014.2 0.0000 0.0000
23:31 3.4 0.8 83 205 0.3 0.8 1014 0.0000 0.0000
23:40 3.4 0.8 83 192 0.3 0.8 1014 0.0000 0.0000
23:50 3.4 1 84 221 0.3 1.1 1014 0.0000 0.0000

DAY STATISTIC

2019-02-18
TEMPERATURE
AVERAGE
6.6
HIGH
14.4
15:18
LOW
0.9
07:49
PRESSURE
AVERAGE
1016.6
HIGH
1019.1
01:46
LOW
1014.0
23:31
DEWPOINT
AVERAGE
2.3
HIGH
7.0
14:48
LOW
-1.6
07:49
HUMIDITY
AVERAGE
75
HIGH
85
09:00
LOW
61
15:08
WIND SPEED
AVERAGE
0.6
HIGH
1.7
14:38
WIND GUST
AVERAGE
1.5
HIGH
4.2
10:41
WIND DIRECTION
PREVAILING
SW
34.6%
N
0.0
NE
0.0
E
2.2
SE
23.5
S
30.9
SW
34.6
W
1.5
NW
0.0
PRECIPITATION
RAIN HOUR
0.0
RAIN DAY
0.0
TEMPERATURE (°C)
LOW
0.9
HIGH
14.4
AVERAGE
6.6
PRESSURE (hpa)
LOW
1014.0
HIGH
1019.1
AVERAGE
1016.6
DEVICE